createdAt,value
2022-10-11T00:01:46.590Z,101932.22
2022-10-11T00:04:13.279Z,101927.97
2022-10-11T00:06:40.195Z,101929.13
2022-10-11T00:09:07.054Z,101925.84
2022-10-11T00:11:33.568Z,101930.63
2022-10-11T00:14:00.254Z,101944.06
2022-10-11T00:16:26.786Z,101941.50
2022-10-11T00:18:53.448Z,101941.63
2022-10-11T00:21:21.158Z,101945.28
2022-10-11T00:23:47.781Z,101947.09
2022-10-11T00:26:14.506Z,101952.38
2022-10-11T00:28:41.709Z,101946.34
2022-10-11T00:31:13.173Z,101951.63
2022-10-11T00:33:39.853Z,101948.25
2022-10-11T00:36:07.599Z,101951.19
2022-10-11T00:38:34.723Z,101954.06
2022-10-11T00:41:01.387Z,101961.56
2022-10-11T00:43:30.548Z,101965.81
2022-10-11T00:45:57.006Z,101966.75
2022-10-11T00:48:27.746Z,101967.72
2022-10-11T00:50:56.553Z,101969.00
2022-10-11T00:53:23.251Z,101975.34
2022-10-11T00:55:52.009Z,101970.91
2022-10-11T00:58:19.206Z,101963.69
2022-10-11T01:00:46.461Z,101964.53
2022-10-11T01:03:13.037Z,101968.53
2022-10-11T01:05:40.197Z,101964.38
2022-10-11T01:08:07.592Z,101969.00
2022-10-11T01:10:34.101Z,101971.13
2022-10-11T01:13:19.023Z,101965.38
2022-10-11T01:15:54.569Z,101982.41
2022-10-11T01:18:44.563Z,101973.88
2022-10-11T01:21:22.017Z,101970.69
2022-10-11T01:23:57.814Z,101977.69
2022-10-11T01:26:30.343Z,101969.84
2022-10-11T01:29:02.712Z,101972.59
2022-10-11T01:31:34.534Z,101979.03
2022-10-11T01:34:27.550Z,101979.44
2022-10-11T01:36:54.034Z,101980.63
2022-10-11T01:39:33.986Z,101973.94
2022-10-11T01:42:02.789Z,101979.34
2022-10-11T01:44:30.443Z,101982.94
2022-10-11T01:46:57.168Z,101983.22
2022-10-11T01:49:23.746Z,101982.47
2022-10-11T01:51:52.814Z,101980.88
2022-10-11T01:55:03.884Z,101980.19
2022-10-11T01:57:52.463Z,101977.00
2022-10-11T02:00:18.944Z,101980.47
2022-10-11T02:02:54.556Z,101980.78
2022-10-11T02:05:27.061Z,101984.16
2022-10-11T02:07:56.815Z,101981.34
2022-10-11T02:10:26.038Z,101986.44
2022-10-11T02:12:55.672Z,101993.59
2022-10-11T02:15:23.034Z,101983.41
2022-10-11T02:17:52.768Z,101991.50
2022-10-11T02:20:21.042Z,101989.34
2022-10-11T02:22:49.648Z,101995.47
2022-10-11T02:25:20.119Z,101997.38
2022-10-11T02:27:48.983Z,101998.31
2022-10-11T02:30:15.818Z,101997.25
2022-10-11T02:32:43.740Z,101995.66
2022-10-11T02:35:11.859Z,101996.81
2022-10-11T02:37:44.654Z,102003.03
2022-10-11T02:40:19.070Z,101999.75
2022-10-11T02:42:49.093Z,102002.56
2022-10-11T02:45:21.398Z,102009.00
2022-10-11T02:47:48.230Z,102009.00
2022-10-11T02:50:15.124Z,102010.13
2022-10-11T02:52:41.973Z,102006.53
2022-10-11T02:55:08.858Z,102018.13
2022-10-11T02:57:35.718Z,102006.72
2022-10-11T03:00:02.760Z,102008.50
2022-10-11T03:02:29.271Z,102018.31
2022-10-11T03:04:55.745Z,102010.63
2022-10-11T03:07:22.319Z,102013.38
2022-10-11T03:09:48.877Z,102015.16
2022-10-11T03:12:15.335Z,102021.56
2022-10-11T03:14:41.884Z,102028.06
2022-10-11T03:17:34.483Z,102030.28
2022-10-11T03:19:55.015Z,102026.63
2022-10-11T03:22:21.520Z,102030.97
2022-10-11T03:24:48.008Z,102032.84
2022-10-11T03:27:14.530Z,102029.53
2022-10-11T03:29:41.023Z,102040.00
2022-10-11T03:32:07.514Z,102041.28
2022-10-11T03:34:34.094Z,102039.47
2022-10-11T03:37:00.620Z,102036.44
2022-10-11T03:39:27.104Z,102045.38
2022-10-11T03:41:53.686Z,102047.84
2022-10-11T03:44:20.167Z,102051.78
2022-10-11T03:46:46.628Z,102050.66
2022-10-11T03:49:13.163Z,102055.34
2022-10-11T03:51:39.623Z,102050.16
2022-10-11T03:54:06.073Z,102059.16
2022-10-11T03:56:32.813Z,102059.25
2022-10-11T03:58:59.335Z,102064.34
2022-10-11T04:01:25.824Z,102071.66
2022-10-11T04:03:55.068Z,102070.91
2022-10-11T04:06:21.615Z,102076.25
2022-10-11T04:08:48.157Z,102071.25
2022-10-11T04:11:14.667Z,102078.41
2022-10-11T04:13:41.183Z,102074.81
2022-10-11T04:16:07.954Z,102074.91
2022-10-11T04:18:34.732Z,102082.56
2022-10-11T04:21:01.237Z,102095.84
2022-10-11T04:23:27.712Z,102091.59
2022-10-11T04:25:54.237Z,102090.06
2022-10-11T04:28:20.813Z,102091.91
2022-10-11T04:30:47.389Z,102094.47
2022-10-11T04:33:13.937Z,102100.50
2022-10-11T04:35:40.615Z,102098.91
2022-10-11T04:38:07.091Z,102110.44
2022-10-11T04:40:33.605Z,102108.56
2022-10-11T04:43:00.377Z,102112.97
2022-10-11T04:45:26.922Z,102111.28
2022-10-11T04:47:53.436Z,102109.50
2022-10-11T04:50:19.920Z,102121.22
2022-10-11T04:52:46.482Z,102120.81
2022-10-11T04:55:12.983Z,102121.06
2022-10-11T04:57:39.462Z,102121.28
2022-10-11T05:00:06.200Z,102118.81
2022-10-11T05:02:33.049Z,102119.66
2022-10-11T05:04:59.787Z,102122.47
2022-10-11T05:07:26.259Z,102121.88
2022-10-11T05:09:52.965Z,102123.31
2022-10-11T05:12:20.045Z,102127.72
2022-10-11T05:14:46.513Z,102130.94
2022-10-11T05:17:13.042Z,102125.22
2022-10-11T05:19:39.719Z,102127.69
2022-10-11T05:22:06.215Z,102133.28
2022-10-11T05:24:32.791Z,102134.53
2022-10-11T05:27:03.140Z,102140.56
2022-10-11T05:29:30.070Z,102151.28
2022-10-11T05:31:56.606Z,102146.09
2022-10-11T05:34:23.136Z,102147.19
2022-10-11T05:36:49.608Z,102148.97
2022-10-11T05:39:16.173Z,102154.84
2022-10-11T05:41:42.637Z,102152.44
2022-10-11T05:44:09.272Z,102150.59
2022-10-11T05:46:35.851Z,102153.38
2022-10-11T05:49:02.345Z,102153.47
2022-10-11T05:51:28.829Z,102156.88
2022-10-11T05:53:55.348Z,102156.69
2022-10-11T05:56:22.994Z,102152.44
2022-10-11T05:58:49.773Z,102155.00
2022-10-11T06:01:23.697Z,102146.09
2022-10-11T06:03:50.406Z,102155.69
2022-10-11T06:06:16.882Z,102158.41
2022-10-11T06:08:43.937Z,102160.88
2022-10-11T06:11:12.203Z,102164.28
2022-10-11T06:13:38.887Z,102162.34
2022-10-11T06:16:06.045Z,102172.78
2022-10-11T06:18:32.802Z,102184.94
2022-10-11T06:20:59.622Z,102177.72
2022-10-11T06:23:26.485Z,102178.38
2022-10-11T06:26:03.461Z,102182.63
2022-10-11T06:28:30.244Z,102190.38
2022-10-11T06:30:57.199Z,102184.84
2022-10-11T06:33:23.856Z,102195.31
2022-10-11T06:35:50.627Z,102198.63
2022-10-11T06:38:17.148Z,102195.06
2022-10-11T06:40:43.642Z,102195.88
2022-10-11T06:43:10.164Z,102208.09
2022-10-11T06:45:36.617Z,102214.16
2022-10-11T06:48:05.675Z,102210.41
2022-10-11T06:50:58.042Z,102217.38
2022-10-11T06:53:19.913Z,102219.94
2022-10-11T06:55:47.326Z,102224.53
2022-10-11T06:58:13.791Z,102221.81
2022-10-11T07:00:40.378Z,102225.97
2022-10-11T07:03:07.649Z,102227.69
2022-10-11T07:05:35.501Z,102233.72
2022-10-11T07:08:02.291Z,102244.03
2022-10-11T07:10:28.839Z,102246.34
2022-10-11T07:12:55.357Z,102241.94
2022-10-11T07:15:22.171Z,102243.56
2022-10-11T07:17:48.817Z,102243.66
2022-10-11T07:20:15.500Z,102245.94
2022-10-11T07:22:42.118Z,102247.41
2022-10-11T07:25:09.036Z,102247.09
2022-10-11T07:27:35.637Z,102242.41
2022-10-11T07:30:02.350Z,102252.56
2022-10-11T07:32:28.999Z,102259.19
2022-10-11T07:34:56.603Z,102260.59
2022-10-11T07:37:23.210Z,102254.63
2022-10-11T07:39:49.984Z,102263.56
2022-10-11T07:42:16.649Z,102263.75
2022-10-11T07:44:43.294Z,102269.38
2022-10-11T07:47:11.386Z,102252.13
2022-10-11T07:49:38.315Z,102257.81
2022-10-11T07:52:05.267Z,102256.53
2022-10-11T07:54:32.983Z,102262.25
2022-10-11T07:56:59.817Z,102262.66
2022-10-11T07:59:26.554Z,102273.38
2022-10-11T08:01:53.242Z,102274.53
2022-10-11T08:04:21.412Z,102266.75
2022-10-11T08:06:52.566Z,102280.06
2022-10-11T08:09:20.116Z,102273.97
2022-10-11T08:11:46.739Z,102271.72
2022-10-11T08:14:13.374Z,102279.50
2022-10-11T08:16:40.294Z,102279.22
2022-10-11T08:19:07.119Z,102271.56
2022-10-11T08:21:34.026Z,102276.28
2022-10-11T08:24:02.648Z,102273.53
2022-10-11T08:26:30.170Z,102279.00
2022-10-11T08:28:58.876Z,102280.09
2022-10-11T08:31:25.616Z,102279.53
2022-10-11T08:33:52.208Z,102289.22
2022-10-11T08:36:18.806Z,102283.25
2022-10-11T08:38:45.588Z,102284.03
2022-10-11T08:41:27.412Z,102286.34
2022-10-11T08:43:56.746Z,102303.69
2022-10-11T08:46:29.188Z,102286.19
2022-10-11T08:48:55.922Z,102291.53
2022-10-11T08:51:30.843Z,102294.94
2022-10-11T08:54:07.136Z,102296.31
2022-10-11T08:56:37.805Z,102284.50
2022-10-11T08:59:15.522Z,102290.41
2022-10-11T09:01:52.896Z,102305.53
2022-10-11T09:04:19.718Z,102301.66
2022-10-11T09:07:11.453Z,102302.06
2022-10-11T09:09:56.157Z,102302.63
2022-10-11T09:13:04.828Z,102303.28
2022-10-11T09:15:49.694Z,102306.84
2022-10-11T09:18:28.385Z,102305.16
2022-10-11T09:21:12.302Z,102304.06
2022-10-11T09:23:51.348Z,102294.94
2022-10-11T09:27:05.573Z,102304.41
2022-10-11T09:29:51.593Z,102306.84
2022-10-11T09:32:21.418Z,102288.31
2022-10-11T09:35:02.380Z,102305.00
2022-10-11T09:37:43.813Z,102305.00
2022-10-11T09:40:10.897Z,102290.28
2022-10-11T09:42:37.579Z,102280.88
2022-10-11T09:45:20.955Z,102289.63
2022-10-11T09:47:49.790Z,102284.38
2022-10-11T09:50:20.750Z,102277.69
2022-10-11T09:52:51.194Z,102272.53
2022-10-11T09:55:54.381Z,102269.50
2022-10-11T09:58:35.528Z,102271.06
2022-10-11T10:01:08.710Z,102271.66
2022-10-11T10:03:43.720Z,102272.09
2022-10-11T10:06:16.158Z,102268.59
2022-10-11T10:08:45.623Z,102268.94
2022-10-11T10:11:12.976Z,102267.47
2022-10-11T10:13:46.737Z,102281.56
2022-10-11T10:16:29.678Z,102275.94
2022-10-11T10:19:05.164Z,102261.97
2022-10-11T10:21:33.225Z,102268.13
2022-10-11T10:24:03.287Z,102265.66
2022-10-11T10:26:30.853Z,102273.31
2022-10-11T10:28:57.380Z,102276.47
2022-10-11T10:31:25.624Z,102267.69
2022-10-11T10:33:54.522Z,102273.94
2022-10-11T10:36:27.546Z,102265.97
2022-10-11T10:39:08.562Z,102257.88
2022-10-11T10:41:36.054Z,102256.41
2022-10-11T10:44:03.731Z,102252.88
2022-10-11T10:46:36.231Z,102251.91
2022-10-11T10:52:30.211Z,102256.03
2022-10-11T10:55:06.751Z,102250.16
2022-10-11T10:58:01.669Z,102251.38
2022-10-11T11:00:35.148Z,102248.63
2022-10-11T11:03:46.016Z,102245.19
2022-10-11T11:06:27.959Z,102240.41
2022-10-11T11:09:05.741Z,102252.28
2022-10-11T11:11:53.805Z,102250.63
2022-10-11T11:14:45.446Z,102244.75
2022-10-11T11:17:39.899Z,102235.56
2022-10-11T11:20:06.540Z,102237.94
2022-10-11T11:22:44.639Z,102236.28
2022-10-11T11:25:30.882Z,102232.44
2022-10-11T11:28:19.006Z,102223.03
2022-10-11T11:31:11.944Z,102222.44
2022-10-11T11:33:48.660Z,102223.06
2022-10-11T11:36:26.632Z,102219.31
2022-10-11T11:39:01.516Z,102211.50
2022-10-11T11:41:34.349Z,102204.81
2022-10-11T11:44:09.954Z,102210.34
2022-10-11T11:47:06.489Z,102212.00
2022-10-11T11:49:39.374Z,102210.19
2022-10-11T11:52:08.505Z,102204.53
2022-10-11T11:54:44.587Z,102202.19
2022-10-11T11:57:42.100Z,102211.31
2022-10-11T12:00:17.640Z,102206.75
2022-10-11T12:02:55.287Z,102206.06
2022-10-11T12:05:28.721Z,102196.16
2022-10-11T12:08:06.634Z,102202.75
2022-10-11T12:10:55.539Z,102197.88
2022-10-11T12:13:36.518Z,102191.47
2022-10-11T12:16:14.568Z,102188.38
2022-10-11T12:18:56.469Z,102190.38
2022-10-11T12:21:36.383Z,102194.66
2022-10-11T12:24:52.940Z,102188.88
2022-10-11T12:27:49.444Z,102178.06
2022-10-11T12:30:44.307Z,102180.94
2022-10-11T12:33:22.468Z,102176.75
2022-10-11T12:35:54.946Z,102181.47
2022-10-11T12:38:24.391Z,102180.22
2022-10-11T12:41:10.950Z,102177.56
2022-10-11T12:43:49.927Z,102186.53
2022-10-11T12:46:28.532Z,102180.53
2022-10-11T12:49:24.698Z,102175.88
2022-10-11T12:51:51.324Z,102165.88
2022-10-11T12:54:42.780Z,102168.84
2022-10-11T12:57:12.143Z,102179.22
2022-10-11T12:59:45.245Z,102168.59
2022-10-11T13:02:40.043Z,102166.00
2022-10-11T13:05:29.954Z,102159.38
2022-10-11T13:07:59.274Z,102163.59
2022-10-11T13:10:45.835Z,102164.13
2022-10-11T13:13:22.083Z,102172.09
2022-10-11T13:15:49.755Z,102159.59
2022-10-11T13:18:18.156Z,102164.53
2022-10-11T13:20:45.157Z,102167.69
2022-10-11T13:23:38.791Z,102165.22
2022-10-11T13:26:05.722Z,102157.16
2022-10-11T13:28:36.323Z,102168.66
2022-10-11T13:31:04.558Z,102153.38
2022-10-11T13:33:34.807Z,102156.00
2022-10-11T13:36:05.318Z,102156.38
2022-10-11T13:38:35.154Z,102161.56
2022-10-11T13:41:07.987Z,102159.47
2022-10-11T13:43:36.791Z,102149.13
2022-10-11T13:46:07.190Z,102144.13
2022-10-11T13:48:41.124Z,102155.38
2022-10-11T13:51:28.927Z,102137.03
2022-10-11T13:54:13.474Z,102142.13
2022-10-11T13:56:47.410Z,102146.69
2022-10-11T13:59:22.984Z,102143.88
2022-10-11T14:01:57.337Z,102143.91
2022-10-11T14:04:29.352Z,102142.91
2022-10-11T14:07:02.709Z,102142.47
2022-10-11T14:09:31.292Z,102138.72
2022-10-11T14:12:25.928Z,102138.28
2022-10-11T14:14:52.659Z,102135.38
2022-10-11T14:17:22.547Z,102140.13
2022-10-11T14:20:16.972Z,102135.88
2022-10-11T14:22:44.454Z,102135.28
2022-10-11T14:25:12.015Z,102129.72
2022-10-11T14:27:39.599Z,102130.69
2022-10-11T14:30:26.143Z,102128.63
2022-10-11T14:32:55.844Z,102124.88
2022-10-11T14:35:25.562Z,102125.97
2022-10-11T14:37:52.398Z,102125.22
2022-10-11T14:40:22.795Z,102123.75
2022-10-11T14:42:49.926Z,102131.75
2022-10-11T14:45:17.764Z,102124.25
2022-10-11T14:47:45.399Z,102132.16
2022-10-11T14:51:02.652Z,102134.44
2022-10-11T14:53:29.328Z,102142.97
2022-10-11T14:55:56.199Z,102132.94
2022-10-11T14:58:22.880Z,102136.63
2022-10-11T15:00:49.532Z,102142.06
2022-10-11T15:03:16.161Z,102132.84
2022-10-11T15:05:42.777Z,102132.81
2022-10-11T15:08:09.618Z,102128.66
2022-10-11T15:10:39.310Z,102129.53
2022-10-11T15:13:07.238Z,102130.53
2022-10-11T15:15:36.843Z,102122.50
2022-10-11T15:18:06.038Z,102132.19
2022-10-11T15:20:35.968Z,102128.63
2022-10-11T15:23:04.360Z,102122.41
2022-10-11T15:25:31.215Z,102130.34
2022-10-11T15:27:58.236Z,102120.72
2022-10-11T15:30:28.806Z,102122.75
2022-10-11T15:32:55.746Z,102132.19
2022-10-11T15:35:24.913Z,102135.59
2022-10-11T15:37:57.779Z,102130.81
2022-10-11T15:40:27.700Z,102133.03
2022-10-11T15:42:54.884Z,102123.38
2022-10-11T15:45:22.748Z,102134.66
2022-10-11T15:47:50.251Z,102127.47
2022-10-11T15:50:37.542Z,102130.84
2022-10-11T15:53:08.934Z,102127.53
2022-10-11T15:55:41.018Z,102126.50
2022-10-11T15:58:12.898Z,102132.22
2022-10-11T16:00:39.546Z,102129.53
2022-10-11T16:03:06.230Z,102128.44
2022-10-11T16:05:33.456Z,102124.06
2022-10-11T16:08:00.142Z,102130.75
2022-10-11T16:10:26.892Z,102133.88
2022-10-11T16:12:53.746Z,102127.94
2022-10-11T16:15:20.423Z,102110.22
2022-10-11T16:17:47.239Z,102128.63
2022-10-11T16:20:15.003Z,102131.75
2022-10-11T16:22:42.028Z,102127.03
2022-10-11T16:25:09.724Z,102133.47
2022-10-11T16:27:37.265Z,102140.56
2022-10-11T16:30:04.370Z,102135.94
2022-10-11T16:32:35.176Z,102130.56
2022-10-11T16:35:01.854Z,102137.66
2022-10-11T16:37:28.532Z,102138.63
2022-10-11T16:39:55.362Z,102140.28
2022-10-11T16:42:24.335Z,102136.72
2022-10-11T16:44:51.238Z,102133.91
2022-10-11T16:47:18.831Z,102138.22
2022-10-11T16:49:46.321Z,102138.97
2022-10-11T16:52:14.243Z,102131.09
2022-10-11T16:54:46.119Z,102133.03
2022-10-11T16:57:15.441Z,102131.69
2022-10-11T16:59:42.625Z,102126.91
2022-10-11T17:02:16.282Z,102133.66
2022-10-11T17:04:43.083Z,102119.28
2022-10-11T17:07:12.947Z,102138.16
2022-10-11T17:09:43.974Z,102128.56
2022-10-11T17:12:13.263Z,102134.91
2022-10-11T17:14:41.202Z,102130.78
2022-10-11T17:17:09.883Z,102114.03
2022-10-11T17:19:45.136Z,102132.59
2022-10-11T17:22:15.151Z,102135.44
2022-10-11T17:24:41.891Z,102137.69
2022-10-11T17:27:08.750Z,102144.56
2022-10-11T17:29:35.663Z,102135.06
2022-10-11T17:32:02.576Z,102142.66
2022-10-11T17:34:29.303Z,102143.50
2022-10-11T17:36:56.027Z,102140.03
2022-10-11T17:39:24.216Z,102144.22
2022-10-11T17:41:52.375Z,102140.47
2022-10-11T17:44:19.712Z,102147.31
2022-10-11T17:46:47.683Z,102143.75
2022-10-11T17:49:14.655Z,102154.63
2022-10-11T17:51:41.974Z,102148.72
2022-10-11T17:54:13.239Z,102146.84
2022-10-11T17:56:43.085Z,102143.25
2022-10-11T17:59:17.131Z,102152.72
2022-10-11T18:01:44.276Z,102143.44
2022-10-11T18:04:16.667Z,102147.06
2022-10-11T18:06:45.540Z,102149.13
2022-10-11T18:09:13.424Z,102151.94
2022-10-11T18:11:40.155Z,102145.94
2022-10-11T18:14:07.103Z,102149.91
2022-10-11T18:16:35.524Z,102154.06
2022-10-11T18:19:04.556Z,102148.25
2022-10-11T18:21:34.700Z,102156.25
2022-10-11T18:24:03.674Z,102154.22
2022-10-11T18:26:31.064Z,102159.31
2022-10-11T18:28:59.195Z,102159.78
2022-10-11T18:31:28.539Z,102157.38
2022-10-11T18:33:55.762Z,102152.53
2022-10-11T18:36:25.612Z,102153.50
2022-10-11T18:39:04.642Z,102148.19
2022-10-11T18:41:33.101Z,102151.06
2022-10-11T18:44:02.613Z,102155.19
2022-10-11T18:46:30.319Z,102161.09
2022-10-11T18:48:58.566Z,102162.91
2022-10-11T18:51:31.038Z,102163.00
2022-10-11T18:54:00.894Z,102140.13
2022-10-11T18:56:30.566Z,102157.19
2022-10-11T18:58:58.820Z,102154.66
2022-10-11T19:01:29.213Z,102153.41
2022-10-11T19:03:57.363Z,102152.25
2022-10-11T19:06:30.106Z,102150.03
2022-10-11T19:09:00.626Z,102154.38
2022-10-11T19:11:28.435Z,102148.56
2022-10-11T19:14:00.924Z,102136.66
2022-10-11T19:16:29.840Z,102145.31
2022-10-11T19:18:57.435Z,102141.94
2022-10-11T19:21:24.974Z,102135.84
2022-10-11T19:23:51.960Z,102142.47
2022-10-11T19:26:26.414Z,102146.09
2022-10-11T19:28:58.806Z,102142.09
2022-10-11T19:31:25.777Z,102150.38
2022-10-11T19:33:53.054Z,102147.31
2022-10-11T19:36:20.125Z,102150.94
2022-10-11T19:38:49.204Z,102137.50
2022-10-11T19:41:18.272Z,102139.53
2022-10-11T19:43:45.896Z,102140.53
2022-10-11T19:46:20.149Z,102140.28
2022-10-11T19:48:54.295Z,102139.22
2022-10-11T19:51:23.599Z,102136.06
2022-10-11T19:53:57.748Z,102144.38
2022-10-11T19:56:26.155Z,102140.13
2022-10-11T19:58:52.858Z,102146.06
2022-10-11T20:01:28.139Z,102148.84
2022-10-11T20:03:57.221Z,102153.72
2022-10-11T20:06:26.029Z,102152.00
2022-10-11T20:09:16.596Z,102143.38
2022-10-11T20:11:39.850Z,102160.03
2022-10-11T20:14:06.644Z,102158.22
2022-10-11T20:16:33.493Z,102156.31
2022-10-11T20:19:00.347Z,102160.44
2022-10-11T20:21:29.693Z,102145.50
2022-10-11T20:23:59.708Z,102153.75
2022-10-11T20:26:27.737Z,102143.81
2022-10-11T20:28:56.283Z,102159.06
2022-10-11T20:31:26.179Z,102148.38
2022-10-11T20:33:58.682Z,102155.09
2022-10-11T20:36:30.192Z,102157.19
2022-10-11T20:38:58.371Z,102150.81
2022-10-11T20:41:27.695Z,102146.91
2022-10-11T20:43:56.532Z,102136.41
2022-10-11T20:46:28.466Z,102151.91
2022-10-11T20:49:01.581Z,102143.22
2022-10-11T20:51:30.411Z,102145.31
2022-10-11T20:53:57.203Z,102148.16
2022-10-11T20:56:24.248Z,102146.91
2022-10-11T20:58:52.758Z,102149.03
2022-10-11T21:01:21.752Z,102151.91
2022-10-11T21:03:48.593Z,102142.94
2022-10-11T21:06:15.467Z,102149.06
2022-10-11T21:08:42.382Z,102156.06
2022-10-11T21:11:09.433Z,102158.19
2022-10-11T21:13:36.687Z,102136.84
2022-10-11T21:16:16.681Z,102146.22
2022-10-11T21:18:43.593Z,102138.66
2022-10-11T21:21:13.246Z,102154.75
2022-10-11T21:23:40.927Z,102138.22
2022-10-11T21:26:10.403Z,102151.38
2022-10-11T21:28:38.201Z,102144.38
2022-10-11T21:31:06.620Z,102153.69
2022-10-11T21:33:34.362Z,102137.38
2022-10-11T21:36:09.616Z,102142.03
2022-10-11T21:38:36.563Z,102156.97
2022-10-11T21:41:05.404Z,102147.00
2022-10-11T21:43:33.780Z,102151.00
2022-10-11T21:46:00.423Z,102152.47
2022-10-11T21:48:29.329Z,102158.69
2022-10-11T21:50:56.068Z,102162.75
2022-10-11T21:53:22.858Z,102166.22
2022-10-11T21:55:49.680Z,102159.66
2022-10-11T21:58:16.270Z,102163.44
2022-10-11T22:00:42.935Z,102161.66
2022-10-11T22:03:09.547Z,102156.19
2022-10-11T22:05:36.254Z,102159.03
2022-10-11T22:08:02.956Z,102153.84
2022-10-11T22:10:29.559Z,102157.34
2022-10-11T22:12:56.167Z,102162.63
2022-10-11T22:15:23.081Z,102145.66
2022-10-11T22:17:49.723Z,102145.72
2022-10-11T22:20:16.429Z,102149.22
2022-10-11T22:22:43.115Z,102154.47
2022-10-11T22:25:09.734Z,102149.34
2022-10-11T22:27:36.973Z,102150.78
2022-10-11T22:30:03.923Z,102157.22
2022-10-11T22:32:30.532Z,102156.66
2022-10-11T22:34:57.171Z,102163.06
2022-10-11T22:37:23.836Z,102156.28
2022-10-11T22:39:50.436Z,102156.84
2022-10-11T22:42:17.201Z,102159.69
2022-10-11T22:44:44.267Z,102158.72
2022-10-11T22:47:10.857Z,102154.78
2022-10-11T22:49:37.514Z,102146.38
2022-10-11T22:52:04.339Z,102160.66
2022-10-11T22:54:31.014Z,102157.25
2022-10-11T22:56:57.707Z,102145.53
2022-10-11T22:59:24.522Z,102149.03
2022-10-11T23:01:51.202Z,102154.72
2022-10-11T23:04:18.594Z,102140.66
2022-10-11T23:06:45.358Z,102156.22
2022-10-11T23:09:12.196Z,102149.31
2022-10-11T23:11:38.809Z,102144.44
2022-10-11T23:14:05.520Z,102155.19
2022-10-11T23:16:32.166Z,102150.66
2022-10-11T23:18:58.818Z,102146.31
2022-10-11T23:21:25.498Z,102145.63
2022-10-11T23:23:53.873Z,102136.38
2022-10-11T23:26:21.057Z,102159.34
2022-10-11T23:28:47.889Z,102142.44
2022-10-11T23:31:18.116Z,102151.31
2022-10-11T23:33:45.999Z,102146.22
2022-10-11T23:36:17.371Z,102143.09
2022-10-11T23:38:44.499Z,102151.22
2022-10-11T23:41:11.668Z,102148.72
2022-10-11T23:43:38.500Z,102147.44
2022-10-11T23:46:05.245Z,102141.41
2022-10-11T23:48:31.857Z,102149.41
2022-10-11T23:50:58.862Z,102151.22
2022-10-11T23:53:25.496Z,102154.41
2022-10-11T23:55:52.183Z,102147.81
2022-10-11T23:58:18.898Z,102147.03
